createdAt,value
2018-05-09T00:00:05.402Z,971.82
2018-05-09T00:01:05.516Z,971.79
2018-05-09T00:02:05.733Z,971.82
2018-05-09T00:03:04.843Z,971.82
2018-05-09T00:04:06.065Z,971.77
2018-05-09T00:05:06.012Z,971.93
2018-05-09T00:06:05.167Z,971.88
2018-05-09T00:07:05.148Z,971.66
2018-05-09T00:08:05.667Z,971.72
2018-05-09T00:09:04.830Z,971.81
2018-05-09T00:10:05.795Z,971.86
2018-05-09T00:11:05.757Z,971.78
2018-05-09T00:12:05.729Z,971.81
2018-05-09T00:13:08.111Z,971.81
2018-05-09T00:14:05.688Z,971.73
2018-05-09T00:15:05.591Z,971.76
2018-05-09T00:16:05.402Z,971.70
2018-05-09T00:17:05.189Z,971.82
2018-05-09T00:18:05.258Z,971.76
2018-05-09T00:19:05.875Z,971.84
2018-05-09T00:20:05.539Z,971.86
2018-05-09T00:21:04.924Z,971.86
2018-05-09T00:22:05.700Z,971.76
2018-05-09T00:23:05.279Z,971.89
2018-05-09T00:24:05.368Z,971.79
2018-05-09T00:25:05.460Z,971.76
2018-05-09T00:26:05.150Z,971.65
2018-05-09T00:27:06.810Z,971.73
2018-05-09T00:28:05.821Z,971.76
2018-05-09T00:29:05.310Z,971.71
2018-05-09T00:30:05.176Z,971.71
2018-05-09T00:31:05.726Z,971.82
2018-05-09T00:32:05.769Z,971.65
2018-05-09T00:33:06.107Z,971.68
2018-05-09T00:34:05.033Z,971.68
2018-05-09T00:35:06.303Z,971.80
2018-05-09T00:36:04.901Z,971.60
2018-05-09T00:37:05.543Z,971.74
2018-05-09T00:38:05.446Z,971.68
2018-05-09T00:39:05.700Z,971.69
2018-05-09T00:40:05.203Z,971.69
2018-05-09T00:41:05.403Z,971.69
2018-05-09T00:42:05.721Z,971.77
2018-05-09T00:43:05.223Z,971.72
2018-05-09T00:44:05.644Z,971.80
2018-05-09T00:45:05.321Z,971.78
2018-05-09T00:46:05.403Z,971.78
2018-05-09T00:47:05.591Z,971.61
2018-05-09T00:48:05.897Z,971.69
2018-05-09T00:49:05.060Z,971.63
2018-05-09T00:50:06.080Z,971.75
2018-05-09T00:51:05.321Z,971.61
2018-05-09T00:52:05.390Z,971.64
2018-05-09T00:53:05.461Z,971.83
2018-05-09T00:54:05.413Z,971.61
2018-05-09T00:55:05.627Z,971.67
2018-05-09T00:56:04.891Z,971.59
2018-05-09T00:57:05.344Z,971.59
2018-05-09T00:58:05.633Z,971.65
2018-05-09T00:59:05.183Z,971.54
2018-05-09T01:00:05.978Z,971.57
2018-05-09T01:01:05.100Z,971.68
2018-05-09T01:02:05.132Z,971.63
2018-05-09T01:03:05.665Z,971.71
2018-05-09T01:04:05.212Z,971.63
2018-05-09T01:05:05.498Z,971.60
2018-05-09T01:06:05.536Z,971.63
2018-05-09T01:07:05.428Z,971.75
2018-05-09T01:08:05.135Z,971.52
2018-05-09T01:09:05.401Z,971.72
2018-05-09T01:10:05.084Z,971.58
2018-05-09T01:11:05.063Z,971.83
2018-05-09T01:12:05.216Z,971.75
2018-05-09T01:13:05.585Z,971.73
2018-05-09T01:14:05.547Z,971.67
2018-05-09T01:15:05.785Z,971.73
2018-05-09T01:16:04.939Z,971.64
2018-05-09T01:17:05.026Z,971.76
2018-05-09T01:18:11.806Z,971.67
2018-05-09T01:19:05.570Z,971.73
2018-05-09T01:20:05.302Z,971.70
2018-05-09T01:21:06.106Z,971.65
2018-05-09T01:22:05.391Z,971.79
2018-05-09T01:23:05.178Z,971.65
2018-05-09T01:24:05.416Z,971.71
2018-05-09T01:25:05.767Z,971.80
2018-05-09T01:26:10.615Z,971.77
2018-05-09T01:27:05.281Z,971.65
2018-05-09T01:28:05.428Z,971.74
2018-05-09T01:29:04.937Z,971.74
2018-05-09T01:30:05.507Z,971.74
2018-05-09T01:31:05.786Z,971.63
2018-05-09T01:32:05.484Z,971.61
2018-05-09T01:33:05.243Z,971.58
2018-05-09T01:34:05.094Z,971.64
2018-05-09T01:35:05.696Z,971.64
2018-05-09T01:36:05.841Z,971.67
2018-05-09T01:37:05.833Z,971.81
2018-05-09T01:38:05.132Z,971.61
2018-05-09T01:39:05.398Z,971.64
2018-05-09T01:40:05.286Z,971.67
2018-05-09T01:41:05.304Z,971.50
2018-05-09T01:42:05.433Z,971.67
2018-05-09T01:43:05.327Z,971.61
2018-05-09T01:44:05.621Z,971.65
2018-05-09T01:45:05.791Z,971.62
2018-05-09T01:46:05.876Z,971.68
2018-05-09T01:47:04.915Z,971.68
2018-05-09T01:48:05.574Z,971.76
2018-05-09T01:49:05.536Z,971.71
2018-05-09T01:50:05.327Z,971.68
2018-05-09T01:51:05.316Z,971.59
2018-05-09T01:52:04.974Z,971.62
2018-05-09T01:53:15.541Z,971.65
2018-05-09T01:54:05.279Z,971.68
2018-05-09T01:55:05.979Z,971.51
2018-05-09T01:56:04.911Z,971.65
2018-05-09T01:57:05.198Z,971.60
2018-05-09T01:58:05.762Z,971.40
2018-05-09T01:59:06.161Z,971.57
2018-05-09T02:00:04.950Z,971.52
2018-05-09T02:01:05.514Z,971.43
2018-05-09T02:02:05.142Z,971.49
2018-05-09T02:03:04.988Z,971.57
2018-05-09T02:04:05.889Z,971.60
2018-05-09T02:05:05.544Z,971.58
2018-05-09T02:06:05.197Z,971.55
2018-05-09T02:07:06.169Z,971.61
2018-05-09T02:08:05.213Z,971.70
2018-05-09T02:09:05.708Z,971.67
2018-05-09T02:10:05.243Z,971.53
2018-05-09T02:11:05.509Z,971.70
2018-05-09T02:12:05.463Z,971.56
2018-05-09T02:13:05.715Z,971.47
2018-05-09T02:14:05.681Z,971.39
2018-05-09T02:15:05.316Z,971.39
2018-05-09T02:16:05.429Z,971.53
2018-05-09T02:17:05.534Z,971.45
2018-05-09T02:18:05.473Z,971.42
2018-05-09T02:19:06.382Z,971.48
2018-05-09T02:20:10.467Z,971.51
2018-05-09T02:21:05.687Z,971.54
2018-05-09T02:22:04.953Z,971.45
2018-05-09T02:23:05.432Z,971.62
2018-05-09T02:24:05.724Z,971.48
2018-05-09T02:25:05.054Z,971.43
2018-05-09T02:26:05.366Z,971.51
2018-05-09T02:27:05.687Z,971.48
2018-05-09T02:28:05.807Z,971.31
2018-05-09T02:29:05.632Z,971.29
2018-05-09T02:30:05.012Z,971.31
2018-05-09T02:31:05.567Z,971.40
2018-05-09T02:32:05.145Z,971.26
2018-05-09T02:33:06.003Z,971.23
2018-05-09T02:34:05.368Z,971.29
2018-05-09T02:35:05.091Z,971.29
2018-05-09T02:36:05.385Z,971.38
2018-05-09T02:37:05.440Z,971.35
2018-05-09T02:38:05.225Z,971.41
2018-05-09T02:39:05.506Z,971.30
2018-05-09T02:40:05.237Z,971.41
2018-05-09T02:41:05.458Z,971.38
2018-05-09T02:42:05.294Z,971.21
2018-05-09T02:43:05.543Z,971.18
2018-05-09T02:44:05.180Z,971.30
2018-05-09T02:45:05.390Z,971.24
2018-05-09T02:46:05.434Z,971.18
2018-05-09T02:47:05.370Z,971.33
2018-05-09T02:48:05.359Z,971.33
2018-05-09T02:49:05.029Z,971.27
2018-05-09T02:50:05.556Z,971.21
2018-05-09T02:51:05.217Z,971.21
2018-05-09T02:52:04.890Z,971.18
2018-05-09T02:53:05.613Z,971.19
2018-05-09T02:54:04.835Z,971.24
2018-05-09T02:55:05.622Z,971.21
2018-05-09T02:56:05.481Z,971.21
2018-05-09T02:57:10.480Z,971.22
2018-05-09T02:58:05.195Z,971.10
2018-05-09T02:59:05.299Z,971.04
2018-05-09T03:00:05.932Z,970.99
2018-05-09T03:01:04.941Z,971.05
2018-05-09T03:02:05.324Z,971.16
2018-05-09T03:03:05.204Z,971.10
2018-05-09T03:04:05.327Z,971.10
2018-05-09T03:05:05.691Z,971.11
2018-05-09T03:06:05.587Z,971.22
2018-05-09T03:07:04.836Z,971.14
2018-05-09T03:08:05.653Z,971.28
2018-05-09T03:09:05.878Z,971.31
2018-05-09T03:10:05.690Z,971.33
2018-05-09T03:11:05.660Z,971.25
2018-05-09T03:12:05.286Z,971.28
2018-05-09T03:13:06.198Z,971.22
2018-05-09T03:14:10.281Z,971.13
2018-05-09T03:15:05.133Z,971.19
2018-05-09T03:16:05.534Z,971.22
2018-05-09T03:17:05.840Z,971.22
2018-05-09T03:18:05.274Z,971.25
2018-05-09T03:19:05.567Z,971.10
2018-05-09T03:20:05.183Z,971.28
2018-05-09T03:21:05.751Z,971.25
2018-05-09T03:22:05.321Z,971.22
2018-05-09T03:23:05.405Z,971.05
2018-05-09T03:24:05.723Z,971.13
2018-05-09T03:25:05.645Z,971.10
2018-05-09T03:26:10.600Z,971.08
2018-05-09T03:27:05.302Z,971.30
2018-05-09T03:28:05.818Z,971.05
2018-05-09T03:29:06.324Z,971.14
2018-05-09T03:30:05.413Z,971.05
2018-05-09T03:31:05.509Z,971.22
2018-05-09T03:32:05.356Z,971.14
2018-05-09T03:33:05.463Z,971.02
2018-05-09T03:34:05.168Z,971.08
2018-05-09T03:35:05.707Z,971.08
2018-05-09T03:36:05.844Z,971.11
2018-05-09T03:37:05.893Z,971.05
2018-05-09T03:38:06.116Z,971.14
2018-05-09T03:39:05.095Z,971.00
2018-05-09T03:40:05.463Z,970.97
2018-05-09T03:41:05.472Z,971.11
2018-05-09T03:42:05.650Z,971.00
2018-05-09T03:43:05.070Z,971.08
2018-05-09T03:44:05.989Z,971.02
2018-05-09T03:45:05.865Z,971.02
2018-05-09T03:46:05.199Z,971.00
2018-05-09T03:47:04.922Z,971.00
2018-05-09T03:48:05.037Z,971.05
2018-05-09T03:49:05.349Z,971.17
2018-05-09T03:50:04.897Z,971.05
2018-05-09T03:51:05.760Z,970.91
2018-05-09T03:52:05.492Z,971.02
2018-05-09T03:53:04.930Z,971.08
2018-05-09T03:54:05.043Z,971.13
2018-05-09T03:55:05.092Z,971.10
2018-05-09T03:56:05.409Z,971.05
2018-05-09T03:57:05.189Z,970.99
2018-05-09T03:58:05.767Z,971.07
2018-05-09T03:59:05.582Z,970.87
2018-05-09T04:00:06.455Z,970.87
2018-05-09T04:01:05.451Z,970.93
2018-05-09T04:02:05.811Z,970.96
2018-05-09T04:03:05.209Z,971.01
2018-05-09T04:04:10.782Z,971.01
2018-05-09T04:05:05.690Z,971.07
2018-05-09T04:06:05.098Z,970.98
2018-05-09T04:07:05.060Z,970.87
2018-05-09T04:08:05.470Z,970.90
2018-05-09T04:09:04.963Z,971.07
2018-05-09T04:10:06.355Z,970.96
2018-05-09T04:11:05.352Z,970.96
2018-05-09T04:12:05.910Z,970.98
2018-05-09T04:13:05.514Z,970.98
2018-05-09T04:14:05.336Z,971.13
2018-05-09T04:15:05.684Z,971.01
2018-05-09T04:16:10.853Z,971.01
2018-05-09T04:17:05.786Z,971.10
2018-05-09T04:18:05.567Z,971.09
2018-05-09T04:19:10.311Z,971.12
2018-05-09T04:20:05.866Z,971.11
2018-05-09T04:21:05.591Z,971.00
2018-05-09T04:22:05.217Z,971.10
2018-05-09T04:23:10.774Z,971.24
2018-05-09T04:24:06.097Z,971.03
2018-05-09T04:25:10.970Z,971.05
2018-05-09T04:26:05.151Z,971.10
2018-05-09T04:27:05.761Z,971.06
2018-05-09T04:28:05.777Z,970.94
2018-05-09T04:29:05.521Z,971.13
2018-05-09T04:30:05.015Z,970.92
2018-05-09T04:31:05.787Z,971.00
2018-05-09T04:32:05.889Z,971.10
2018-05-09T04:33:06.201Z,971.18
2018-05-09T04:34:05.343Z,971.09
2018-05-09T04:35:06.470Z,971.08
2018-05-09T04:36:05.744Z,971.12
2018-05-09T04:37:05.276Z,971.00
2018-05-09T04:38:05.100Z,970.96
2018-05-09T04:39:10.489Z,971.01
2018-05-09T04:40:05.615Z,970.95
2018-05-09T04:41:05.536Z,970.99
2018-05-09T04:42:05.365Z,970.98
2018-05-09T04:43:06.825Z,970.86
2018-05-09T04:44:05.402Z,971.03
2018-05-09T04:45:06.126Z,971.02
2018-05-09T04:46:05.588Z,970.92
2018-05-09T04:47:05.687Z,970.86
2018-05-09T04:48:06.670Z,971.08
2018-05-09T04:49:05.715Z,971.05
2018-05-09T04:50:05.956Z,970.87
2018-05-09T04:51:04.968Z,970.84
2018-05-09T04:52:05.272Z,970.87
2018-05-09T04:53:05.603Z,970.93
2018-05-09T04:54:05.475Z,970.87
2018-05-09T04:55:05.306Z,970.95
2018-05-09T04:56:05.646Z,970.92
2018-05-09T04:57:05.435Z,970.87
2018-05-09T04:58:05.437Z,970.89
2018-05-09T04:59:05.996Z,970.89
2018-05-09T05:00:05.383Z,970.94
2018-05-09T05:01:05.250Z,970.94
2018-05-09T05:02:05.240Z,970.80
2018-05-09T05:03:06.015Z,970.89
2018-05-09T05:04:05.209Z,970.80
2018-05-09T05:05:06.417Z,970.81
2018-05-09T05:06:05.397Z,970.87
2018-05-09T05:07:05.294Z,970.72
2018-05-09T05:08:05.323Z,970.98
2018-05-09T05:09:04.984Z,970.80
2018-05-09T05:10:05.858Z,970.82
2018-05-09T05:11:06.061Z,970.93
2018-05-09T05:12:05.579Z,970.95
2018-05-09T05:13:05.831Z,970.94
2018-05-09T05:14:05.387Z,970.93
2018-05-09T05:15:05.644Z,970.98
2018-05-09T05:16:05.635Z,970.89
2018-05-09T05:17:10.592Z,971.02
2018-05-09T05:18:05.428Z,971.01
2018-05-09T05:19:05.136Z,971.17
2018-05-09T05:20:10.052Z,971.05
2018-05-09T05:21:05.063Z,971.09
2018-05-09T05:22:05.466Z,970.91
2018-05-09T05:23:05.832Z,971.05
2018-05-09T05:24:05.737Z,971.04
2018-05-09T05:25:05.900Z,971.11
2018-05-09T05:26:05.617Z,971.14
2018-05-09T05:27:10.522Z,971.10
2018-05-09T05:28:06.068Z,971.12
2018-05-09T05:29:05.993Z,970.97
2018-05-09T05:30:05.987Z,971.11
2018-05-09T05:31:05.661Z,971.20
2018-05-09T05:32:05.913Z,971.16
2018-05-09T05:33:06.046Z,971.24
2018-05-09T05:34:05.318Z,971.27
2018-05-09T05:35:05.787Z,971.29
2018-05-09T05:36:06.151Z,971.43
2018-05-09T05:37:05.404Z,971.28
2018-05-09T05:38:06.327Z,971.19
2018-05-09T05:39:05.652Z,971.18
2018-05-09T05:40:05.726Z,971.29
2018-05-09T05:41:05.320Z,971.31
2018-05-09T05:42:10.301Z,971.31
2018-05-09T05:43:05.704Z,971.13
2018-05-09T05:44:05.932Z,971.21
2018-05-09T05:45:05.170Z,971.12
2018-05-09T05:46:05.912Z,971.25
2018-05-09T05:47:06.193Z,971.07
2018-05-09T05:48:05.270Z,971.01
2018-05-09T05:49:05.397Z,971.04
2018-05-09T05:50:05.658Z,970.98
2018-05-09T05:51:05.828Z,971.16
2018-05-09T05:52:05.532Z,971.14
2018-05-09T05:53:05.931Z,971.06
2018-05-09T05:54:10.582Z,971.15
2018-05-09T05:55:05.813Z,971.16
2018-05-09T05:56:05.477Z,971.05
2018-05-09T05:57:05.410Z,971.12
2018-05-09T05:58:05.092Z,971.04
2018-05-09T05:59:11.178Z,971.17
2018-05-09T06:00:05.709Z,971.12
2018-05-09T06:01:06.077Z,971.01
2018-05-09T06:02:05.092Z,971.10
2018-05-09T06:03:05.796Z,971.23
2018-05-09T06:04:05.851Z,971.15
2018-05-09T06:05:10.807Z,971.12
2018-05-09T06:06:05.600Z,971.19
2018-05-09T06:07:05.348Z,971.13
2018-05-09T06:08:05.437Z,971.21
2018-05-09T06:09:05.493Z,971.30
2018-05-09T06:10:05.321Z,971.18
2018-05-09T06:11:05.326Z,971.20
2018-05-09T06:12:05.583Z,971.19
2018-05-09T06:13:05.350Z,971.33
2018-05-09T06:14:05.268Z,971.30
2018-05-09T06:15:05.706Z,971.29
2018-05-09T06:16:05.013Z,971.37
2018-05-09T06:17:05.175Z,971.48
2018-05-09T06:18:05.908Z,971.32
2018-05-09T06:19:05.197Z,971.43
2018-05-09T06:20:05.778Z,971.43
2018-05-09T06:21:05.018Z,971.56
2018-05-09T06:22:05.761Z,971.50
2018-05-09T06:23:05.731Z,971.49
2018-05-09T06:24:05.898Z,971.34
2018-05-09T06:25:06.031Z,971.45
2018-05-09T06:26:06.481Z,971.36
2018-05-09T06:27:06.106Z,971.38
2018-05-09T06:28:05.741Z,971.37
2018-05-09T06:29:10.372Z,971.54
2018-05-09T06:30:05.516Z,971.42
2018-05-09T06:31:05.149Z,971.36
2018-05-09T06:32:05.811Z,971.44
2018-05-09T06:33:05.712Z,971.35
2018-05-09T06:34:05.506Z,971.37
2018-05-09T06:35:05.625Z,971.40
2018-05-09T06:36:05.470Z,971.51
2018-05-09T06:37:05.901Z,971.50
2018-05-09T06:38:05.798Z,971.38
2018-05-09T06:39:04.971Z,971.44
2018-05-09T06:40:05.472Z,971.49
2018-05-09T06:41:05.269Z,971.34
2018-05-09T06:42:05.273Z,971.66
2018-05-09T06:43:10.169Z,971.45
2018-05-09T06:44:05.022Z,971.48
2018-05-09T06:45:05.220Z,971.42
2018-05-09T06:46:06.677Z,971.53
2018-05-09T06:47:05.667Z,971.47
2018-05-09T06:48:05.847Z,971.41
2018-05-09T06:49:05.839Z,971.52
2018-05-09T06:50:06.449Z,971.49
2018-05-09T06:51:05.102Z,971.46
2018-05-09T06:52:05.378Z,971.49
2018-05-09T06:53:05.914Z,971.31
2018-05-09T06:54:05.483Z,971.37
2018-05-09T06:55:06.463Z,971.39
2018-05-09T06:56:10.331Z,971.30
2018-05-09T06:57:05.044Z,971.30
2018-05-09T06:58:04.939Z,971.32
2018-05-09T06:59:05.214Z,971.32
2018-05-09T07:00:05.503Z,971.38
2018-05-09T07:01:05.575Z,971.38
2018-05-09T07:02:05.754Z,971.41
2018-05-09T07:03:05.625Z,971.29
2018-05-09T07:04:06.228Z,971.46
2018-05-09T07:05:05.855Z,971.40
2018-05-09T07:06:05.955Z,971.37
2018-05-09T07:07:05.669Z,971.43
2018-05-09T07:08:05.297Z,971.40
2018-05-09T07:09:05.784Z,971.43
2018-05-09T07:10:05.498Z,971.40
2018-05-09T07:11:06.357Z,971.28
2018-05-09T07:12:05.354Z,971.45
2018-05-09T07:13:05.506Z,971.40
2018-05-09T07:14:05.353Z,971.48
2018-05-09T07:15:05.623Z,971.45
2018-05-09T07:16:05.831Z,971.42
2018-05-09T07:17:06.469Z,971.33
2018-05-09T07:18:05.168Z,971.44
2018-05-09T07:19:05.919Z,971.32
2018-05-09T07:20:05.163Z,971.35
2018-05-09T07:21:05.417Z,971.35
2018-05-09T07:22:05.285Z,971.41
2018-05-09T07:23:05.309Z,971.32
2018-05-09T07:24:05.912Z,971.38
2018-05-09T07:25:05.896Z,971.29
2018-05-09T07:26:05.442Z,971.29
2018-05-09T07:27:05.246Z,971.12
2018-05-09T07:28:05.225Z,971.12
2018-05-09T07:29:05.108Z,971.23
2018-05-09T07:30:06.246Z,971.11
2018-05-09T07:31:05.827Z,971.11
2018-05-09T07:32:05.712Z,971.23
2018-05-09T07:33:05.389Z,971.23
2018-05-09T07:34:05.693Z,971.26
2018-05-09T07:35:05.593Z,971.23
2018-05-09T07:36:05.142Z,971.14
2018-05-09T07:37:05.929Z,971.17
2018-05-09T07:38:05.153Z,971.23
2018-05-09T07:39:05.382Z,971.18
2018-05-09T07:40:06.541Z,971.26
2018-05-09T07:41:05.528Z,971.35
2018-05-09T07:42:10.376Z,971.24
2018-05-09T07:43:05.703Z,971.33
2018-05-09T07:44:05.058Z,971.31
2018-05-09T07:45:10.707Z,971.35
2018-05-09T07:46:05.433Z,971.44
2018-05-09T07:47:05.907Z,971.42
2018-05-09T07:48:05.207Z,971.39
2018-05-09T07:49:05.557Z,971.45
2018-05-09T07:50:05.168Z,971.37
2018-05-09T07:51:06.101Z,971.34
2018-05-09T07:52:05.872Z,971.40
2018-05-09T07:53:05.904Z,971.43
2018-05-09T07:54:05.860Z,971.43
2018-05-09T07:55:05.706Z,971.49
2018-05-09T07:56:05.969Z,971.43
2018-05-09T07:57:05.513Z,971.32
2018-05-09T07:58:05.298Z,971.35
2018-05-09T07:59:11.133Z,971.38
2018-05-09T08:00:05.412Z,971.35
2018-05-09T08:01:05.353Z,971.32
2018-05-09T08:02:05.522Z,971.32
2018-05-09T08:03:05.405Z,971.29
2018-05-09T08:04:05.557Z,971.38
2018-05-09T08:05:05.874Z,971.35
2018-05-09T08:06:05.237Z,971.35
2018-05-09T08:07:05.544Z,971.38
2018-05-09T08:08:05.135Z,971.32
2018-05-09T08:09:05.228Z,971.31
2018-05-09T08:10:10.324Z,971.42
2018-05-09T08:11:05.732Z,971.30
2018-05-09T08:12:05.975Z,971.33
2018-05-09T08:13:05.788Z,971.39
2018-05-09T08:14:05.111Z,971.44
2018-05-09T08:15:06.013Z,971.32
2018-05-09T08:16:09.964Z,971.38
2018-05-09T08:17:05.088Z,971.41
2018-05-09T08:18:05.370Z,971.38
2018-05-09T08:19:05.301Z,971.35
2018-05-09T08:20:04.987Z,971.44
2018-05-09T08:21:05.511Z,971.33
2018-05-09T08:22:06.004Z,971.44
2018-05-09T08:23:05.995Z,971.41
2018-05-09T08:24:05.135Z,971.38
2018-05-09T08:25:06.272Z,971.47
2018-05-09T08:26:05.345Z,971.44
2018-05-09T08:27:05.713Z,971.47
2018-05-09T08:28:05.538Z,971.32
2018-05-09T08:29:10.378Z,971.55
2018-05-09T08:30:05.550Z,971.49
2018-05-09T08:31:05.162Z,971.43
2018-05-09T08:32:05.224Z,971.37
2018-05-09T08:33:05.138Z,971.69
2018-05-09T08:34:05.069Z,971.39
2018-05-09T08:35:06.263Z,971.48
2018-05-09T08:36:05.409Z,971.51
2018-05-09T08:37:06.382Z,971.39
2018-05-09T08:38:05.815Z,971.33
2018-05-09T08:39:05.593Z,971.50
2018-05-09T08:40:05.176Z,971.32
2018-05-09T08:41:05.910Z,971.27
2018-05-09T08:42:05.108Z,971.38
2018-05-09T08:43:05.545Z,971.46
2018-05-09T08:44:05.612Z,971.29
2018-05-09T08:45:10.157Z,971.29
2018-05-09T08:46:05.107Z,971.20
2018-05-09T08:47:05.167Z,971.37
2018-05-09T08:48:05.769Z,971.40
2018-05-09T08:49:07.025Z,971.31
2018-05-09T08:50:04.998Z,971.25
2018-05-09T08:51:05.169Z,971.19
2018-05-09T08:52:05.714Z,971.31
2018-05-09T08:53:05.267Z,971.30
2018-05-09T08:54:05.656Z,971.42
2018-05-09T08:55:05.291Z,971.24
2018-05-09T08:56:05.138Z,971.27
2018-05-09T08:57:05.706Z,971.44
2018-05-09T08:58:05.654Z,971.29
2018-05-09T08:59:05.624Z,971.26
2018-05-09T09:00:05.763Z,971.32
2018-05-09T09:01:05.950Z,971.32
2018-05-09T09:02:05.545Z,971.26
2018-05-09T09:03:05.275Z,971.44
2018-05-09T09:04:05.912Z,971.38
2018-05-09T09:05:05.609Z,971.30
2018-05-09T09:06:05.433Z,971.30
2018-05-09T09:07:05.159Z,971.27
2018-05-09T09:08:05.498Z,971.33
2018-05-09T09:09:05.925Z,971.22
2018-05-09T09:10:05.990Z,971.39
2018-05-09T09:11:05.624Z,971.42
2018-05-09T09:12:05.671Z,971.39
2018-05-09T09:13:05.488Z,971.30
2018-05-09T09:14:05.370Z,971.21
2018-05-09T09:15:05.415Z,971.33
2018-05-09T09:16:05.303Z,971.24
2018-05-09T09:17:05.947Z,971.30
2018-05-09T09:18:05.215Z,971.24
2018-05-09T09:19:05.937Z,971.33
2018-05-09T09:20:06.264Z,971.22
2018-05-09T09:21:05.520Z,971.22
2018-05-09T09:22:05.500Z,971.25
2018-05-09T09:23:05.835Z,971.24
2018-05-09T09:24:05.665Z,971.24
2018-05-09T09:25:05.804Z,971.21
2018-05-09T09:26:05.623Z,971.24
2018-05-09T09:27:05.103Z,971.26
2018-05-09T09:28:05.912Z,971.20
2018-05-09T09:29:05.107Z,971.26
2018-05-09T09:30:05.145Z,971.11
2018-05-09T09:31:05.553Z,971.32
2018-05-09T09:32:05.818Z,971.17
2018-05-09T09:33:05.476Z,971.20
2018-05-09T09:34:06.009Z,971.08
2018-05-09T09:35:06.097Z,971.13
2018-05-09T09:36:05.160Z,971.07
2018-05-09T09:37:05.085Z,971.04
2018-05-09T09:38:10.839Z,971.04
2018-05-09T09:39:05.983Z,971.07
2018-05-09T09:40:05.076Z,971.01
2018-05-09T09:41:05.886Z,971.01
2018-05-09T09:42:05.640Z,970.89
2018-05-09T09:43:05.067Z,971.04
2018-05-09T09:44:05.393Z,970.95
2018-05-09T09:45:05.071Z,971.00
2018-05-09T09:46:05.770Z,970.95
2018-05-09T09:47:05.297Z,971.01
2018-05-09T09:48:05.439Z,970.95
2018-05-09T09:49:06.097Z,970.97
2018-05-09T09:50:05.248Z,970.92
2018-05-09T09:51:06.984Z,970.94
2018-05-09T09:52:05.658Z,971.03
2018-05-09T09:53:05.861Z,970.94
2018-05-09T09:54:05.718Z,970.91
2018-05-09T09:55:05.595Z,970.91
2018-05-09T09:56:06.208Z,970.97
2018-05-09T09:57:05.288Z,970.94
2018-05-09T09:58:06.151Z,970.97
2018-05-09T09:59:05.620Z,971.00
2018-05-09T10:00:06.581Z,970.88
2018-05-09T10:01:05.716Z,970.85
2018-05-09T10:02:05.737Z,970.97
2018-05-09T10:03:05.823Z,971.00
2018-05-09T10:04:05.734Z,970.83
2018-05-09T10:05:06.127Z,970.91
2018-05-09T10:06:05.506Z,970.80
2018-05-09T10:07:05.195Z,970.88
2018-05-09T10:08:05.559Z,970.88
2018-05-09T10:09:05.455Z,970.91
2018-05-09T10:10:05.572Z,970.85
2018-05-09T10:11:05.444Z,970.97
2018-05-09T10:12:05.229Z,970.94
2018-05-09T10:13:06.250Z,970.91
2018-05-09T10:14:05.931Z,970.83
2018-05-09T10:15:05.298Z,970.83
2018-05-09T10:16:06.480Z,970.89
2018-05-09T10:17:10.069Z,970.71
2018-05-09T10:18:06.367Z,970.80
2018-05-09T10:19:05.817Z,970.88
2018-05-09T10:20:05.565Z,971.03
2018-05-09T10:21:05.930Z,970.91
2018-05-09T10:22:05.012Z,970.88
2018-05-09T10:23:05.924Z,970.85
2018-05-09T10:24:10.829Z,970.79
2018-05-09T10:25:05.786Z,970.87
2018-05-09T10:26:05.364Z,970.78
2018-05-09T10:27:05.775Z,970.78
2018-05-09T10:28:05.619Z,970.69
2018-05-09T10:29:05.511Z,970.69
2018-05-09T10:30:05.887Z,970.81
2018-05-09T10:31:05.719Z,970.83
2018-05-09T10:32:05.328Z,970.77
2018-05-09T10:33:05.659Z,970.89
2018-05-09T10:34:10.973Z,970.83
2018-05-09T10:35:06.462Z,970.83
2018-05-09T10:36:05.413Z,970.80
2018-05-09T10:37:05.612Z,970.78
2018-05-09T10:38:05.368Z,970.90
2018-05-09T10:39:05.091Z,970.78
2018-05-09T10:40:06.602Z,970.81
2018-05-09T10:41:05.692Z,970.82
2018-05-09T10:42:05.149Z,970.79
2018-05-09T10:43:05.577Z,970.76
2018-05-09T10:44:05.646Z,970.71
2018-05-09T10:45:05.400Z,970.71
2018-05-09T10:46:05.394Z,970.72
2018-05-09T10:47:05.790Z,970.86
2018-05-09T10:48:05.671Z,970.78
2018-05-09T10:49:05.209Z,970.84
2018-05-09T10:50:05.553Z,970.84
2018-05-09T10:51:05.182Z,970.78
2018-05-09T10:52:05.245Z,970.75
2018-05-09T10:53:05.042Z,970.84
2018-05-09T10:54:05.132Z,970.72
2018-05-09T10:55:06.297Z,970.72
2018-05-09T10:56:05.929Z,970.74
2018-05-09T10:57:08.838Z,970.74
2018-05-09T10:58:05.820Z,970.62
2018-05-09T10:59:05.648Z,970.65
2018-05-09T11:00:05.846Z,970.65
2018-05-09T11:01:05.201Z,970.79
2018-05-09T11:02:05.627Z,970.64
2018-05-09T11:03:05.740Z,970.67
2018-05-09T11:04:05.195Z,970.70
2018-05-09T11:05:05.939Z,970.82
2018-05-09T11:06:05.750Z,970.61
2018-05-09T11:07:04.960Z,970.61
2018-05-09T11:08:05.736Z,970.70
2018-05-09T11:09:05.720Z,970.71
2018-05-09T11:10:05.511Z,970.53
2018-05-09T11:11:05.515Z,970.59
2018-05-09T11:12:06.765Z,970.60
2018-05-09T11:13:06.342Z,970.65
2018-05-09T11:14:04.924Z,970.51
2018-05-09T11:15:05.837Z,970.60
2018-05-09T11:16:05.628Z,970.54
2018-05-09T11:17:05.625Z,970.48
2018-05-09T11:18:05.389Z,970.56
2018-05-09T11:19:05.300Z,970.53
2018-05-09T11:20:06.011Z,970.47
2018-05-09T11:21:05.094Z,970.52
2018-05-09T11:22:05.788Z,970.55
2018-05-09T11:23:04.961Z,970.60
2018-05-09T11:24:05.768Z,970.51
2018-05-09T11:25:05.820Z,970.60
2018-05-09T11:26:05.916Z,970.48
2018-05-09T11:27:05.227Z,970.51
2018-05-09T11:28:05.341Z,970.55
2018-05-09T11:29:06.020Z,970.66
2018-05-09T11:30:05.257Z,970.64
2018-05-09T11:31:05.416Z,970.46
2018-05-09T11:32:05.720Z,970.52
2018-05-09T11:33:05.874Z,970.58
2018-05-09T11:34:05.964Z,970.63
2018-05-09T11:35:05.207Z,970.54
2018-05-09T11:36:05.228Z,970.53
2018-05-09T11:37:05.996Z,970.59
2018-05-09T11:38:10.886Z,970.53
2018-05-09T11:39:06.001Z,970.53
2018-05-09T11:40:05.462Z,970.53
2018-05-09T11:41:05.187Z,970.42
2018-05-09T11:42:05.341Z,970.45
2018-05-09T11:43:05.866Z,970.41
2018-05-09T11:44:05.340Z,970.43
2018-05-09T11:45:05.992Z,970.46
2018-05-09T11:46:05.355Z,970.38
2018-05-09T11:47:05.509Z,970.52
2018-05-09T11:48:05.028Z,970.52
2018-05-09T11:49:05.057Z,970.46
2018-05-09T11:50:06.327Z,970.41
2018-05-09T11:51:05.747Z,970.46
2018-05-09T11:52:05.752Z,970.41
2018-05-09T11:53:05.346Z,970.37
2018-05-09T11:54:05.600Z,970.45
2018-05-09T11:55:05.053Z,970.47
2018-05-09T11:56:05.694Z,970.47
2018-05-09T11:57:05.006Z,970.47
2018-05-09T11:58:06.014Z,970.41
2018-05-09T11:59:06.021Z,970.36
2018-05-09T12:00:05.345Z,970.42
2018-05-09T12:01:05.974Z,970.42
2018-05-09T12:02:05.550Z,970.42
2018-05-09T12:03:10.851Z,970.44
2018-05-09T12:04:05.938Z,970.42
2018-05-09T12:05:05.865Z,970.42
2018-05-09T12:06:05.887Z,970.37
2018-05-09T12:07:05.512Z,970.37
2018-05-09T12:08:05.463Z,970.28
2018-05-09T12:09:05.369Z,970.25
2018-05-09T12:10:06.010Z,970.34
2018-05-09T12:11:10.604Z,970.22
2018-05-09T12:12:05.687Z,970.13
2018-05-09T12:13:05.574Z,970.07
2018-05-09T12:14:05.376Z,970.27
2018-05-09T12:15:05.414Z,970.09
2018-05-09T12:16:05.086Z,970.15
2018-05-09T12:17:05.968Z,970.12
2018-05-09T12:18:06.025Z,970.21
2018-05-09T12:19:05.868Z,970.00
2018-05-09T12:20:05.289Z,970.14
2018-05-09T12:21:05.143Z,970.23
2018-05-09T12:22:05.670Z,970.11
2018-05-09T12:23:05.766Z,969.99
2018-05-09T12:24:05.910Z,969.91
2018-05-09T12:25:05.487Z,969.92
2018-05-09T12:26:05.413Z,970.14
2018-05-09T12:27:06.349Z,969.99
2018-05-09T12:28:05.278Z,969.88